sensor_id;sensor_type;location;lat;lon;timestamp;P1;durP1;ratioP1;P2;durP2;ratioP2
53903;SDS011;39812;52.430;16.936;2024-02-23T00:01:56;6.28;;;3.80;;
53903;SDS011;39812;52.430;16.936;2024-02-23T00:04:22;6.07;;;3.80;;
53903;SDS011;39812;52.430;16.936;2024-02-23T00:06:48;7.75;;;4.10;;
53903;SDS011;39812;52.430;16.936;2024-02-23T00:09:14;7.20;;;4.22;;
53903;SDS011;39812;52.430;16.936;2024-02-23T00:11:40;9.30;;;4.05;;
53903;SDS011;39812;52.430;16.936;2024-02-23T00:14:09;6.28;;;3.78;;
53903;SDS011;39812;52.430;16.936;2024-02-23T00:16:38;8.55;;;3.83;;
53903;SDS011;39812;52.430;16.936;2024-02-23T00:19:07;4.63;;;3.33;;
53903;SDS011;39812;52.430;16.936;2024-02-23T00:21:36;7.57;;;3.20;;
53903;SDS011;39812;52.430;16.936;2024-02-23T00:24:03;5.55;;;3.35;;
53903;SDS011;39812;52.430;16.936;2024-02-23T00:26:30;8.18;;;3.92;;
53903;SDS011;39812;52.430;16.936;2024-02-23T00:28:55;6.68;;;3.70;;
53903;SDS011;39812;52.430;16.936;2024-02-23T00:31:21;6.35;;;4.07;;
53903;SDS011;39812;52.430;16.936;2024-02-23T00:33:47;5.88;;;3.10;;
53903;SDS011;39812;52.430;16.936;2024-02-23T00:36:12;7.63;;;4.13;;
53903;SDS011;39812;52.430;16.936;2024-02-23T00:38:39;5.47;;;3.05;;
53903;SDS011;39812;52.430;16.936;2024-02-23T00:41:04;6.07;;;3.63;;
53903;SDS011;39812;52.430;16.936;2024-02-23T00:43:37;6.57;;;3.72;;
53903;SDS011;39812;52.430;16.936;2024-02-23T00:46:03;7.95;;;3.58;;
53903;SDS011;39812;52.430;16.936;2024-02-23T00:48:29;7.53;;;3.83;;
53903;SDS011;39812;52.430;16.936;2024-02-23T00:50:55;4.97;;;2.97;;
53903;SDS011;39812;52.430;16.936;2024-02-23T00:53:21;7.80;;;3.63;;
53903;SDS011;39812;52.430;16.936;2024-02-23T00:55:47;8.13;;;3.10;;
53903;SDS011;39812;52.430;16.936;2024-02-23T00:58:12;6.00;;;3.08;;
53903;SDS011;39812;52.430;16.936;2024-02-23T01:00:38;6.18;;;3.60;;
53903;SDS011;39812;52.430;16.936;2024-02-23T01:03:03;5.70;;;2.67;;
53903;SDS011;39812;52.430;16.936;2024-02-23T01:05:30;4.82;;;3.22;;
53903;SDS011;39812;52.430;16.936;2024-02-23T01:07:55;4.88;;;2.40;;
53903;SDS011;39812;52.430;16.936;2024-02-23T01:10:21;5.80;;;3.30;;
53903;SDS011;39812;52.430;16.936;2024-02-23T01:12:47;5.63;;;3.17;;
53903;SDS011;39812;52.430;16.936;2024-02-23T01:15:12;7.00;;;3.45;;
53903;SDS011;39812;52.430;16.936;2024-02-23T01:17:38;5.47;;;2.63;;
53903;SDS011;39812;52.430;16.936;2024-02-23T01:20:03;4.65;;;2.70;;
53903;SDS011;39812;52.430;16.936;2024-02-23T01:22:30;6.90;;;2.78;;
53903;SDS011;39812;52.430;16.936;2024-02-23T01:24:55;4.50;;;2.97;;
53903;SDS011;39812;52.430;16.936;2024-02-23T01:27:21;5.35;;;2.97;;
53903;SDS011;39812;52.430;16.936;2024-02-23T01:29:47;7.63;;;2.83;;
53903;SDS011;39812;52.430;16.936;2024-02-23T01:32:13;4.93;;;2.70;;
53903;SDS011;39812;52.430;16.936;2024-02-23T01:34:39;5.28;;;2.75;;
53903;SDS011;39812;52.430;16.936;2024-02-23T01:37:04;4.28;;;2.45;;
53903;SDS011;39812;52.430;16.936;2024-02-23T01:39:30;4.93;;;2.67;;
53903;SDS011;39812;52.430;16.936;2024-02-23T01:41:55;4.47;;;2.15;;
53903;SDS011;39812;52.430;16.936;2024-02-23T01:44:21;6.07;;;2.67;;
53903;SDS011;39812;52.430;16.936;2024-02-23T01:46:47;5.70;;;2.17;;
53903;SDS011;39812;52.430;16.936;2024-02-23T01:49:13;4.95;;;2.53;;
53903;SDS011;39812;52.430;16.936;2024-02-23T01:51:39;3.45;;;2.30;;
53903;SDS011;39812;52.430;16.936;2024-02-23T01:54:04;4.63;;;2.38;;
53903;SDS011;39812;52.430;16.936;2024-02-23T01:56:31;5.32;;;2.35;;
53903;SDS011;39812;52.430;16.936;2024-02-23T01:58:58;5.40;;;2.35;;
53903;SDS011;39812;52.430;16.936;2024-02-23T02:01:24;4.72;;;2.30;;
53903;SDS011;39812;52.430;16.936;2024-02-23T02:03:51;5.72;;;2.63;;
53903;SDS011;39812;52.430;16.936;2024-02-23T02:06:17;3.17;;;2.13;;
53903;SDS011;39812;52.430;16.936;2024-02-23T02:08:42;4.72;;;2.33;;
53903;SDS011;39812;52.430;16.936;2024-02-23T02:11:08;3.85;;;2.00;;
53903;SDS011;39812;52.430;16.936;2024-02-23T02:13:34;3.65;;;2.35;;
53903;SDS011;39812;52.430;16.936;2024-02-23T02:16:00;3.63;;;1.90;;
53903;SDS011;39812;52.430;16.936;2024-02-23T02:18:29;4.10;;;2.20;;
53903;SDS011;39812;52.430;16.936;2024-02-23T02:20:56;6.43;;;2.50;;
53903;SDS011;39812;52.430;16.936;2024-02-23T02:23:22;4.22;;;2.20;;
53903;SDS011;39812;52.430;16.936;2024-02-23T02:26:06;4.95;;;2.17;;
53903;SDS011;39812;52.430;16.936;2024-02-23T02:28:32;3.37;;;2.07;;
53903;SDS011;39812;52.430;16.936;2024-02-23T02:30:59;4.97;;;1.85;;
53903;SDS011;39812;52.430;16.936;2024-02-23T02:33:25;4.50;;;2.38;;
53903;SDS011;39812;52.430;16.936;2024-02-23T02:35:50;4.53;;;2.08;;
53903;SDS011;39812;52.430;16.936;2024-02-23T02:38:16;4.18;;;1.83;;
53903;SDS011;39812;52.430;16.936;2024-02-23T02:40:42;3.10;;;1.80;;
53903;SDS011;39812;52.430;16.936;2024-02-23T02:43:07;3.72;;;1.83;;
53903;SDS011;39812;52.430;16.936;2024-02-23T02:45:33;2.88;;;2.03;;
53903;SDS011;39812;52.430;16.936;2024-02-23T02:48:02;5.60;;;1.73;;
53903;SDS011;39812;52.430;16.936;2024-02-23T02:50:28;3.88;;;1.80;;
53903;SDS011;39812;52.430;16.936;2024-02-23T02:52:54;2.65;;;1.70;;
53903;SDS011;39812;52.430;16.936;2024-02-23T02:55:20;2.78;;;1.85;;
53903;SDS011;39812;52.430;16.936;2024-02-23T02:57:46;3.60;;;1.80;;
53903;SDS011;39812;52.430;16.936;2024-02-23T03:00:11;4.28;;;1.75;;
53903;SDS011;39812;52.430;16.936;2024-02-23T03:02:37;2.60;;;1.52;;
53903;SDS011;39812;52.430;16.936;2024-02-23T03:05:03;4.18;;;1.92;;
53903;SDS011;39812;52.430;16.936;2024-02-23T03:07:29;2.78;;;1.52;;
53903;SDS011;39812;52.430;16.936;2024-02-23T03:09:54;4.20;;;1.85;;
53903;SDS011;39812;52.430;16.936;2024-02-23T03:12:20;2.15;;;1.52;;
53903;SDS011;39812;52.430;16.936;2024-02-23T03:14:46;2.47;;;1.63;;
53903;SDS011;39812;52.430;16.936;2024-02-23T03:17:11;3.08;;;1.60;;
53903;SDS011;39812;52.430;16.936;2024-02-23T03:19:37;5.55;;;2.22;;
53903;SDS011;39812;52.430;16.936;2024-02-23T03:22:03;3.63;;;1.60;;
53903;SDS011;39812;52.430;16.936;2024-02-23T03:24:29;2.75;;;1.42;;
53903;SDS011;39812;52.430;16.936;2024-02-23T03:26:55;2.90;;;1.70;;
53903;SDS011;39812;52.430;16.936;2024-02-23T03:29:21;3.17;;;1.73;;
53903;SDS011;39812;52.430;16.936;2024-02-23T03:31:54;4.38;;;1.83;;
53903;SDS011;39812;52.430;16.936;2024-02-23T03:34:20;3.30;;;1.35;;
53903;SDS011;39812;52.430;16.936;2024-02-23T03:36:45;3.05;;;1.70;;
53903;SDS011;39812;52.430;16.936;2024-02-23T03:39:11;2.90;;;1.75;;
53903;SDS011;39812;52.430;16.936;2024-02-23T03:41:37;3.10;;;1.35;;
53903;SDS011;39812;52.430;16.936;2024-02-23T03:44:02;2.85;;;1.58;;
53903;SDS011;39812;52.430;16.936;2024-02-23T03:46:28;3.00;;;1.40;;
53903;SDS011;39812;52.430;16.936;2024-02-23T03:48:54;3.33;;;1.63;;
53903;SDS011;39812;52.430;16.936;2024-02-23T03:51:19;2.30;;;1.27;;
53903;SDS011;39812;52.430;16.936;2024-02-23T03:53:45;3.25;;;1.63;;
53903;SDS011;39812;52.430;16.936;2024-02-23T03:56:11;2.20;;;1.25;;
53903;SDS011;39812;52.430;16.936;2024-02-23T03:58:37;2.50;;;1.40;;
53903;SDS011;39812;52.430;16.936;2024-02-23T04:01:03;2.03;;;1.23;;
53903;SDS011;39812;52.430;16.936;2024-02-23T04:03:28;2.75;;;1.60;;
53903;SDS011;39812;52.430;16.936;2024-02-23T04:05:54;2.22;;;1.45;;
53903;SDS011;39812;52.430;16.936;2024-02-23T04:08:19;2.78;;;1.67;;
53903;SDS011;39812;52.430;16.936;2024-02-23T04:10:45;1.98;;;1.17;;
53903;SDS011;39812;52.430;16.936;2024-02-23T04:13:11;3.00;;;1.40;;
53903;SDS011;39812;52.430;16.936;2024-02-23T04:15:39;3.33;;;1.00;;
53903;SDS011;39812;52.430;16.936;2024-02-23T04:18:05;3.55;;;1.60;;
53903;SDS011;39812;52.430;16.936;2024-02-23T04:20:31;1.70;;;0.80;;
53903;SDS011;39812;52.430;16.936;2024-02-23T04:22:57;1.80;;;1.23;;
53903;SDS011;39812;52.430;16.936;2024-02-23T04:25:23;1.80;;;1.30;;
53903;SDS011;39812;52.430;16.936;2024-02-23T04:27:49;2.15;;;0.93;;
53903;SDS011;39812;52.430;16.936;2024-02-23T04:30:15;1.90;;;1.20;;
53903;SDS011;39812;52.430;16.936;2024-02-23T04:32:41;2.00;;;1.00;;
53903;SDS011;39812;52.430;16.936;2024-02-23T04:35:07;2.92;;;1.58;;
53903;SDS011;39812;52.430;16.936;2024-02-23T04:37:33;1.58;;;1.10;;
53903;SDS011;39812;52.430;16.936;2024-02-23T04:39:59;1.92;;;1.13;;
53903;SDS011;39812;52.430;16.936;2024-02-23T04:42:24;3.78;;;1.48;;
53903;SDS011;39812;52.430;16.936;2024-02-23T04:44:50;1.95;;;1.10;;
53903;SDS011;39812;52.430;16.936;2024-02-23T04:47:17;2.70;;;1.08;;
53903;SDS011;39812;52.430;16.936;2024-02-23T04:49:43;1.45;;;0.93;;
53903;SDS011;39812;52.430;16.936;2024-02-23T04:52:09;2.38;;;1.05;;
53903;SDS011;39812;52.430;16.936;2024-02-23T04:54:35;1.42;;;0.80;;
53903;SDS011;39812;52.430;16.936;2024-02-23T04:57:01;0.95;;;0.70;;
53903;SDS011;39812;52.430;16.936;2024-02-23T04:59:26;2.10;;;1.20;;
53903;SDS011;39812;52.430;16.936;2024-02-23T05:01:53;1.65;;;0.98;;
53903;SDS011;39812;52.430;16.936;2024-02-23T05:04:19;2.08;;;1.05;;
53903;SDS011;39812;52.430;16.936;2024-02-23T05:06:44;1.40;;;0.95;;
53903;SDS011;39812;52.430;16.936;2024-02-23T05:09:10;1.70;;;0.93;;
53903;SDS011;39812;52.430;16.936;2024-02-23T05:11:36;2.10;;;0.85;;
53903;SDS011;39812;52.430;16.936;2024-02-23T05:14:02;1.85;;;1.25;;
53903;SDS011;39812;52.430;16.936;2024-02-23T05:16:27;1.58;;;0.80;;
53903;SDS011;39812;52.430;16.936;2024-02-23T05:18:53;2.53;;;1.20;;
53903;SDS011;39812;52.430;16.936;2024-02-23T05:21:19;3.78;;;1.20;;
53903;SDS011;39812;52.430;16.936;2024-02-23T05:23:45;1.10;;;0.80;;
53903;SDS011;39812;52.430;16.936;2024-02-23T05:26:11;7.72;;;1.10;;
53903;SDS011;39812;52.430;16.936;2024-02-23T05:28:37;1.02;;;0.93;;
53903;SDS011;39812;52.430;16.936;2024-02-23T05:31:03;1.92;;;1.02;;
53903;SDS011;39812;52.430;16.936;2024-02-23T05:33:29;2.30;;;1.10;;
53903;SDS011;39812;52.430;16.936;2024-02-23T05:35:55;1.75;;;1.10;;
53903;SDS011;39812;52.430;16.936;2024-02-23T05:38:21;2.78;;;1.20;;
53903;SDS011;39812;52.430;16.936;2024-02-23T05:40:47;2.47;;;1.05;;
53903;SDS011;39812;52.430;16.936;2024-02-23T05:43:13;1.77;;;1.00;;
53903;SDS011;39812;52.430;16.936;2024-02-23T05:45:39;2.38;;;1.13;;
53903;SDS011;39812;52.430;16.936;2024-02-23T05:48:05;2.08;;;0.90;;
53903;SDS011;39812;52.430;16.936;2024-02-23T05:50:32;1.55;;;1.13;;
53903;SDS011;39812;52.430;16.936;2024-02-23T05:52:57;2.58;;;1.38;;
53903;SDS011;39812;52.430;16.936;2024-02-23T05:55:23;3.92;;;1.40;;
53903;SDS011;39812;52.430;16.936;2024-02-23T05:57:49;1.77;;;0.93;;
53903;SDS011;39812;52.430;16.936;2024-02-23T06:00:16;2.30;;;1.17;;
53903;SDS011;39812;52.430;16.936;2024-02-23T06:02:44;2.33;;;1.20;;
53903;SDS011;39812;52.430;16.936;2024-02-23T06:05:10;2.33;;;1.10;;
53903;SDS011;39812;52.430;16.936;2024-02-23T06:07:36;2.05;;;1.02;;
53903;SDS011;39812;52.430;16.936;2024-02-23T06:10:01;1.38;;;0.80;;
53903;SDS011;39812;52.430;16.936;2024-02-23T06:12:27;1.73;;;1.02;;
53903;SDS011;39812;52.430;16.936;2024-02-23T06:14:52;3.13;;;0.90;;
53903;SDS011;39812;52.430;16.936;2024-02-23T06:17:20;1.60;;;0.98;;
53903;SDS011;39812;52.430;16.936;2024-02-23T06:19:46;1.90;;;0.95;;
53903;SDS011;39812;52.430;16.936;2024-02-23T06:22:12;1.67;;;1.00;;
53903;SDS011;39812;52.430;16.936;2024-02-23T06:24:38;1.92;;;1.05;;
53903;SDS011;39812;52.430;16.936;2024-02-23T06:27:04;2.20;;;1.10;;
53903;SDS011;39812;52.430;16.936;2024-02-23T06:29:30;3.88;;;1.45;;
53903;SDS011;39812;52.430;16.936;2024-02-23T06:31:56;4.20;;;1.55;;
53903;SDS011;39812;52.430;16.936;2024-02-23T06:34:21;2.45;;;1.08;;
53903;SDS011;39812;52.430;16.936;2024-02-23T06:36:47;1.63;;;1.08;;
53903;SDS011;39812;52.430;16.936;2024-02-23T06:39:13;2.35;;;1.05;;
53903;SDS011;39812;52.430;16.936;2024-02-23T06:41:39;3.67;;;1.10;;
53903;SDS011;39812;52.430;16.936;2024-02-23T06:44:05;2.30;;;1.00;;
53903;SDS011;39812;52.430;16.936;2024-02-23T06:46:30;2.53;;;1.35;;
53903;SDS011;39812;52.430;16.936;2024-02-23T06:48:56;1.88;;;0.95;;
53903;SDS011;39812;52.430;16.936;2024-02-23T06:51:22;1.77;;;1.40;;
53903;SDS011;39812;52.430;16.936;2024-02-23T06:53:47;1.70;;;1.10;;
53903;SDS011;39812;52.430;16.936;2024-02-23T06:56:13;2.10;;;1.05;;
53903;SDS011;39812;52.430;16.936;2024-02-23T06:58:40;1.77;;;1.20;;
53903;SDS011;39812;52.430;16.936;2024-02-23T07:01:05;2.08;;;1.00;;
53903;SDS011;39812;52.430;16.936;2024-02-23T07:03:32;1.30;;;0.70;;
53903;SDS011;39812;52.430;16.936;2024-02-23T07:05:58;3.55;;;1.13;;
53903;SDS011;39812;52.430;16.936;2024-02-23T07:08:23;1.08;;;0.50;;
53903;SDS011;39812;52.430;16.936;2024-02-23T07:10:49;1.15;;;0.70;;
53903;SDS011;39812;52.430;16.936;2024-02-23T07:13:14;0.82;;;0.50;;
53903;SDS011;39812;52.430;16.936;2024-02-23T07:15:40;0.63;;;0.50;;
53903;SDS011;39812;52.430;16.936;2024-02-23T07:18:06;3.03;;;0.73;;
53903;SDS011;39812;52.430;16.936;2024-02-23T07:20:33;0.98;;;0.60;;
53903;SDS011;39812;52.430;16.936;2024-02-23T07:23:00;0.77;;;0.60;;
53903;SDS011;39812;52.430;16.936;2024-02-23T07:25:26;1.00;;;0.68;;
53903;SDS011;39812;52.430;16.936;2024-02-23T07:27:51;1.15;;;0.60;;
53903;SDS011;39812;52.430;16.936;2024-02-23T07:30:17;0.80;;;0.40;;
53903;SDS011;39812;52.430;16.936;2024-02-23T07:32:44;1.10;;;0.30;;
53903;SDS011;39812;52.430;16.936;2024-02-23T07:35:10;0.95;;;0.50;;
53903;SDS011;39812;52.430;16.936;2024-02-23T07:37:36;1.63;;;0.65;;
53903;SDS011;39812;52.430;16.936;2024-02-23T07:40:02;1.98;;;0.50;;
53903;SDS011;39812;52.430;16.936;2024-02-23T07:42:29;0.50;;;0.43;;
53903;SDS011;39812;52.430;16.936;2024-02-23T07:44:55;1.63;;;0.40;;
53903;SDS011;39812;52.430;16.936;2024-02-23T07:47:21;0.50;;;0.32;;
53903;SDS011;39812;52.430;16.936;2024-02-23T07:49:47;0.65;;;0.50;;
53903;SDS011;39812;52.430;16.936;2024-02-23T07:52:13;1.02;;;0.45;;
53903;SDS011;39812;52.430;16.936;2024-02-23T07:54:38;1.05;;;0.65;;
53903;SDS011;39812;52.430;16.936;2024-02-23T07:57:04;1.05;;;0.60;;
53903;SDS011;39812;52.430;16.936;2024-02-23T07:59:30;4.75;;;0.52;;
53903;SDS011;39812;52.430;16.936;2024-02-23T08:01:56;1.60;;;0.70;;
53903;SDS011;39812;52.430;16.936;2024-02-23T08:04:22;2.95;;;0.70;;
53903;SDS011;39812;52.430;16.936;2024-02-23T08:06:48;1.55;;;0.82;;
53903;SDS011;39812;52.430;16.936;2024-02-23T08:09:14;3.15;;;0.70;;
53903;SDS011;39812;52.430;16.936;2024-02-23T08:11:39;2.92;;;0.80;;
53903;SDS011;39812;52.430;16.936;2024-02-23T08:14:05;1.58;;;0.80;;
53903;SDS011;39812;52.430;16.936;2024-02-23T08:16:31;3.95;;;0.70;;
53903;SDS011;39812;52.430;16.936;2024-02-23T08:18:58;2.00;;;0.85;;
53903;SDS011;39812;52.430;16.936;2024-02-23T08:21:24;1.13;;;0.45;;
53903;SDS011;39812;52.430;16.936;2024-02-23T08:23:51;1.23;;;0.57;;
53903;SDS011;39812;52.430;16.936;2024-02-23T08:26:16;1.92;;;0.73;;
53903;SDS011;39812;52.430;16.936;2024-02-23T08:28:42;5.78;;;1.45;;
53903;SDS011;39812;52.430;16.936;2024-02-23T08:31:08;2.47;;;0.57;;
53903;SDS011;39812;52.430;16.936;2024-02-23T08:33:34;1.67;;;0.90;;
53903;SDS011;39812;52.430;16.936;2024-02-23T08:35:59;1.58;;;0.70;;
53903;SDS011;39812;52.430;16.936;2024-02-23T08:38:25;1.75;;;0.82;;
53903;SDS011;39812;52.430;16.936;2024-02-23T08:40:50;0.85;;;0.50;;
53903;SDS011;39812;52.430;16.936;2024-02-23T08:43:16;1.17;;;0.77;;
53903;SDS011;39812;52.430;16.936;2024-02-23T08:45:42;1.05;;;0.40;;
53903;SDS011;39812;52.430;16.936;2024-02-23T08:48:08;1.48;;;0.55;;
53903;SDS011;39812;52.430;16.936;2024-02-23T08:50:33;1.02;;;0.50;;
53903;SDS011;39812;52.430;16.936;2024-02-23T08:52:59;1.00;;;0.60;;
53903;SDS011;39812;52.430;16.936;2024-02-23T08:55:24;1.60;;;0.60;;
53903;SDS011;39812;52.430;16.936;2024-02-23T08:57:50;2.85;;;0.65;;
53903;SDS011;39812;52.430;16.936;2024-02-23T09:00:16;1.67;;;0.68;;
53903;SDS011;39812;52.430;16.936;2024-02-23T09:02:42;3.83;;;0.70;;
53903;SDS011;39812;52.430;16.936;2024-02-23T09:05:08;1.65;;;0.65;;
53903;SDS011;39812;52.430;16.936;2024-02-23T09:07:34;2.85;;;0.70;;
53903;SDS011;39812;52.430;16.936;2024-02-23T09:10:00;1.30;;;0.52;;
53903;SDS011;39812;52.430;16.936;2024-02-23T09:12:26;1.50;;;0.70;;
53903;SDS011;39812;52.430;16.936;2024-02-23T09:14:52;2.15;;;0.55;;
53903;SDS011;39812;52.430;16.936;2024-02-23T09:17:18;0.88;;;0.55;;
53903;SDS011;39812;52.430;16.936;2024-02-23T09:19:45;2.35;;;0.60;;
53903;SDS011;39812;52.430;16.936;2024-02-23T09:22:11;1.52;;;0.60;;
53903;SDS011;39812;52.430;16.936;2024-02-23T09:24:40;1.80;;;0.73;;
53903;SDS011;39812;52.430;16.936;2024-02-23T09:27:06;3.17;;;0.70;;
53903;SDS011;39812;52.430;16.936;2024-02-23T09:29:35;1.35;;;0.60;;
53903;SDS011;39812;52.430;16.936;2024-02-23T09:32:01;1.48;;;0.60;;
53903;SDS011;39812;52.430;16.936;2024-02-23T09:34:26;3.38;;;1.05;;
53903;SDS011;39812;52.430;16.936;2024-02-23T09:36:54;1.88;;;0.60;;
53903;SDS011;39812;52.430;16.936;2024-02-23T09:39:20;2.08;;;0.75;;
53903;SDS011;39812;52.430;16.936;2024-02-23T09:41:45;1.80;;;0.63;;
53903;SDS011;39812;52.430;16.936;2024-02-23T09:44:15;0.73;;;0.50;;
53903;SDS011;39812;52.430;16.936;2024-02-23T09:46:43;2.00;;;0.63;;
53903;SDS011;39812;52.430;16.936;2024-02-23T09:49:09;1.33;;;0.82;;
53903;SDS011;39812;52.430;16.936;2024-02-23T09:51:36;0.95;;;0.52;;
53903;SDS011;39812;52.430;16.936;2024-02-23T09:54:04;2.92;;;0.43;;
53903;SDS011;39812;52.430;16.936;2024-02-23T09:56:30;2.75;;;0.70;;
53903;SDS011;39812;52.430;16.936;2024-02-23T09:58:56;2.17;;;0.70;;
53903;SDS011;39812;52.430;16.936;2024-02-23T10:01:27;1.60;;;0.63;;
53903;SDS011;39812;52.430;16.936;2024-02-23T10:03:56;1.77;;;0.70;;
53903;SDS011;39812;52.430;16.936;2024-02-23T10:06:22;1.80;;;0.82;;
53903;SDS011;39812;52.430;16.936;2024-02-23T10:08:49;0.93;;;0.65;;
53903;SDS011;39812;52.430;16.936;2024-02-23T10:11:17;1.65;;;0.70;;
53903;SDS011;39812;52.430;16.936;2024-02-23T10:13:43;1.25;;;0.45;;
53903;SDS011;39812;52.430;16.936;2024-02-23T10:16:09;2.13;;;0.60;;
53903;SDS011;39812;52.430;16.936;2024-02-23T10:18:37;1.40;;;0.60;;
53903;SDS011;39812;52.430;16.936;2024-02-23T10:21:03;3.05;;;0.50;;
53903;SDS011;39812;52.430;16.936;2024-02-23T10:23:30;1.95;;;0.63;;
53903;SDS011;39812;52.430;16.936;2024-02-23T10:25:55;1.50;;;0.40;;
53903;SDS011;39812;52.430;16.936;2024-02-23T10:28:21;1.33;;;0.60;;
53903;SDS011;39812;52.430;16.936;2024-02-23T10:30:47;1.63;;;0.63;;
53903;SDS011;39812;52.430;16.936;2024-02-23T10:33:13;1.80;;;0.50;;
53903;SDS011;39812;52.430;16.936;2024-02-23T10:35:39;1.05;;;0.77;;
53903;SDS011;39812;52.430;16.936;2024-02-23T10:38:08;1.50;;;0.70;;
53903;SDS011;39812;52.430;16.936;2024-02-23T10:40:37;0.98;;;0.68;;
53903;SDS011;39812;52.430;16.936;2024-02-23T10:43:05;2.30;;;0.88;;
53903;SDS011;39812;52.430;16.936;2024-02-23T10:45:38;4.03;;;1.52;;
53903;SDS011;39812;52.430;16.936;2024-02-23T10:48:05;4.43;;;0.93;;
53903;SDS011;39812;52.430;16.936;2024-02-23T10:50:34;4.55;;;1.25;;
53903;SDS011;39812;52.430;16.936;2024-02-23T10:53:00;4.75;;;1.60;;
53903;SDS011;39812;52.430;16.936;2024-02-23T10:55:26;6.05;;;1.70;;
53903;SDS011;39812;52.430;16.936;2024-02-23T10:57:55;1.23;;;0.60;;
53903;SDS011;39812;52.430;16.936;2024-02-23T11:00:23;1.85;;;0.60;;
53903;SDS011;39812;52.430;16.936;2024-02-23T11:02:51;1.25;;;0.50;;
53903;SDS011;39812;52.430;16.936;2024-02-23T11:05:18;1.10;;;0.40;;
53903;SDS011;39812;52.430;16.936;2024-02-23T11:07:47;1.58;;;0.60;;
53903;SDS011;39812;52.430;16.936;2024-02-23T11:10:14;0.80;;;0.60;;
53903;SDS011;39812;52.430;16.936;2024-02-23T11:12:40;2.33;;;0.40;;
53903;SDS011;39812;52.430;16.936;2024-02-23T11:15:06;1.92;;;0.50;;
53903;SDS011;39812;52.430;16.936;2024-02-23T11:17:32;2.60;;;0.60;;
53903;SDS011;39812;52.430;16.936;2024-02-23T11:20:02;1.92;;;0.50;;
53903;SDS011;39812;52.430;16.936;2024-02-23T11:22:33;2.38;;;1.15;;
53903;SDS011;39812;52.430;16.936;2024-02-23T11:25:03;1.33;;;0.57;;
53903;SDS011;39812;52.430;16.936;2024-02-23T11:27:30;1.77;;;0.60;;
53903;SDS011;39812;52.430;16.936;2024-02-23T11:30:02;0.73;;;0.50;;
53903;SDS011;39812;52.430;16.936;2024-02-23T11:32:39;1.48;;;0.68;;
53903;SDS011;39812;52.430;16.936;2024-02-23T11:35:07;2.53;;;1.00;;
53903;SDS011;39812;52.430;16.936;2024-02-23T11:37:43;1.80;;;0.50;;
53903;SDS011;39812;52.430;16.936;2024-02-23T11:40:30;1.73;;;0.60;;
53903;SDS011;39812;52.430;16.936;2024-02-23T11:42:56;2.53;;;1.13;;
53903;SDS011;39812;52.430;16.936;2024-02-23T11:45:22;2.13;;;0.80;;
53903;SDS011;39812;52.430;16.936;2024-02-23T11:47:49;4.13;;;0.98;;
53903;SDS011;39812;52.430;16.936;2024-02-23T11:50:15;2.95;;;1.10;;
53903;SDS011;39812;52.430;16.936;2024-02-23T11:52:44;1.98;;;0.70;;
53903;SDS011;39812;52.430;16.936;2024-02-23T11:55:10;5.05;;;0.60;;
53903;SDS011;39812;52.430;16.936;2024-02-23T11:57:36;1.25;;;0.65;;
53903;SDS011;39812;52.430;16.936;2024-02-23T12:00:04;1.67;;;0.60;;
53903;SDS011;39812;52.430;16.936;2024-02-23T12:02:32;1.92;;;0.40;;
53903;SDS011;39812;52.430;16.936;2024-02-23T12:04:58;1.02;;;0.43;;
53903;SDS011;39812;52.430;16.936;2024-02-23T12:07:23;1.50;;;0.52;;
53903;SDS011;39812;52.430;16.936;2024-02-23T12:09:51;3.13;;;0.65;;
53903;SDS011;39812;52.430;16.936;2024-02-23T12:12:17;2.33;;;0.60;;
53903;SDS011;39812;52.430;16.936;2024-02-23T12:14:43;0.80;;;0.45;;
53903;SDS011;39812;52.430;16.936;2024-02-23T12:17:09;0.88;;;0.43;;
53903;SDS011;39812;52.430;16.936;2024-02-23T12:19:41;1.15;;;0.60;;
53903;SDS011;39812;52.430;16.936;2024-02-23T12:22:07;3.05;;;0.60;;
53903;SDS011;39812;52.430;16.936;2024-02-23T12:24:34;2.50;;;0.60;;
53903;SDS011;39812;52.430;16.936;2024-02-23T12:26:59;1.17;;;0.70;;
53903;SDS011;39812;52.430;16.936;2024-02-23T12:29:25;1.95;;;0.93;;
53903;SDS011;39812;52.430;16.936;2024-02-23T12:32:01;5.25;;;0.55;;
53903;SDS011;39812;52.430;16.936;2024-02-23T12:34:28;0.93;;;0.50;;
53903;SDS011;39812;52.430;16.936;2024-02-23T12:36:54;2.42;;;0.88;;
53903;SDS011;39812;52.430;16.936;2024-02-23T12:39:20;3.42;;;1.23;;
53903;SDS011;39812;52.430;16.936;2024-02-23T12:41:46;0.77;;;0.50;;
53903;SDS011;39812;52.430;16.936;2024-02-23T12:44:12;0.52;;;0.52;;
53903;SDS011;39812;52.430;16.936;2024-02-23T12:46:38;1.85;;;0.80;;
53903;SDS011;39812;52.430;16.936;2024-02-23T12:49:04;3.30;;;0.63;;
53903;SDS011;39812;52.430;16.936;2024-02-23T12:51:30;0.70;;;0.60;;
53903;SDS011;39812;52.430;16.936;2024-02-23T12:53:56;1.45;;;0.70;;
53903;SDS011;39812;52.430;16.936;2024-02-23T12:56:22;2.80;;;0.60;;
53903;SDS011;39812;52.430;16.936;2024-02-23T12:58:48;2.17;;;0.70;;
53903;SDS011;39812;52.430;16.936;2024-02-23T13:01:13;1.40;;;0.63;;
53903;SDS011;39812;52.430;16.936;2024-02-23T13:03:39;4.50;;;0.70;;
53903;SDS011;39812;52.430;16.936;2024-02-23T13:06:06;1.38;;;0.70;;
53903;SDS011;39812;52.430;16.936;2024-02-23T13:08:32;1.90;;;0.65;;
53903;SDS011;39812;52.430;16.936;2024-02-23T13:10:58;1.17;;;0.70;;
53903;SDS011;39812;52.430;16.936;2024-02-23T13:13:23;1.90;;;0.85;;
53903;SDS011;39812;52.430;16.936;2024-02-23T13:15:50;1.63;;;0.63;;
53903;SDS011;39812;52.430;16.936;2024-02-23T13:18:16;2.22;;;0.93;;
53903;SDS011;39812;52.430;16.936;2024-02-23T13:20:42;0.50;;;0.50;;
53903;SDS011;39812;52.430;16.936;2024-02-23T13:23:08;1.20;;;0.70;;
53903;SDS011;39812;52.430;16.936;2024-02-23T13:25:36;3.25;;;1.02;;
53903;SDS011;39812;52.430;16.936;2024-02-23T13:28:03;0.80;;;0.50;;
53903;SDS011;39812;52.430;16.936;2024-02-23T13:30:29;1.67;;;0.80;;
53903;SDS011;39812;52.430;16.936;2024-02-23T13:32:58;1.13;;;0.73;;
53903;SDS011;39812;52.430;16.936;2024-02-23T13:35:24;1.73;;;0.80;;
53903;SDS011;39812;52.430;16.936;2024-02-23T13:37:50;2.30;;;0.70;;
53903;SDS011;39812;52.430;16.936;2024-02-23T13:40:17;1.35;;;0.90;;
53903;SDS011;39812;52.430;16.936;2024-02-23T13:42:43;1.92;;;0.90;;
53903;SDS011;39812;52.430;16.936;2024-02-23T13:45:11;2.65;;;0.95;;
53903;SDS011;39812;52.430;16.936;2024-02-23T13:47:39;1.65;;;0.90;;
53903;SDS011;39812;52.430;16.936;2024-02-23T13:50:05;2.38;;;0.70;;
53903;SDS011;39812;52.430;16.936;2024-02-23T13:52:31;1.95;;;0.70;;
53903;SDS011;39812;52.430;16.936;2024-02-23T13:54:56;3.03;;;1.00;;
53903;SDS011;39812;52.430;16.936;2024-02-23T13:57:22;3.08;;;0.80;;
53903;SDS011;39812;52.430;16.936;2024-02-23T13:59:48;1.65;;;0.82;;
53903;SDS011;39812;52.430;16.936;2024-02-23T14:02:13;2.38;;;0.80;;
53903;SDS011;39812;52.430;16.936;2024-02-23T14:04:39;2.30;;;0.90;;
53903;SDS011;39812;52.430;16.936;2024-02-23T14:07:05;4.20;;;1.00;;
53903;SDS011;39812;52.430;16.936;2024-02-23T14:09:31;3.22;;;1.45;;
53903;SDS011;39812;52.430;16.936;2024-02-23T14:11:56;7.13;;;0.93;;
53903;SDS011;39812;52.430;16.936;2024-02-23T14:14:22;4.47;;;1.00;;
53903;SDS011;39812;52.430;16.936;2024-02-23T14:16:48;4.88;;;1.15;;
53903;SDS011;39812;52.430;16.936;2024-02-23T14:19:14;2.30;;;1.10;;
53903;SDS011;39812;52.430;16.936;2024-02-23T14:21:39;5.38;;;1.08;;
53903;SDS011;39812;52.430;16.936;2024-02-23T14:24:05;3.25;;;0.90;;
53903;SDS011;39812;52.430;16.936;2024-02-23T14:26:31;3.15;;;1.45;;
53903;SDS011;39812;52.430;16.936;2024-02-23T14:28:58;2.28;;;1.10;;